• Join FlightAware (Why Join?)
  • Login
  • US Flag 
05:31AM EDT


 

Airport Tracker/Info


-or-


 

Live Flight TrackerFlight Track Log ✈ CTL21 ✈ 06-May-2013 ✈ KAZO - KBKL

Flight Track Log - Related Links

Times and Time Zones

All times are in EDT time to prevent confusion due to time zone crossing. See the CTL21 flight status page for this flight to view local times or setup timezone preferences in your user account.

Time Position Orientation Groundspeed Altitude Reporting Facility
EDT Latitude Longitude Course Direction KTS MPH feet Rate Location/Type
05:22PM 42.2014 -85.4050 119° Southeast 135 155 3,700  Level Chicago Center
05:23PM 42.1814 -85.3589 120° Southeast 140 161 4,400 540 Climbing Chicago Center
05:25PM 42.1194 -85.2842 120° Southeast  Level FlightAware Approximate
05:25PM 42.1762 -85.2057 103° East  Level Estimated
05:26PM 42.1664 -85.1482 103° East  Level Estimated
05:26PM 42.1239 -85.2272 120° Southeast 134 154 6,100  Level Chicago Center
05:28PM 42.0674 -85.1578 117° Southeast  Level FlightAware Approximate
05:30PM 42.0392 -85.0231 117° Southeast 160 184 6,900  Level Chicago Center
05:31PM 42.0183 -84.9711 118° Southeast 158 182 6,900  Level Chicago Center
05:32PM 41.9978 -84.9203 119° Southeast 155 178 6,900  Level Chicago Center
05:33PM 41.9728 -84.8608 119° Southeast 152 175 7,000  Climbing Chicago Center
05:35PM 41.9282 -84.7904 117° Southeast  Level FlightAware Approximate
05:35PM 41.9380 -84.7918 124° Southeast  Level FlightAware Approximate
05:35PM 41.9311 -84.7592 124° Southeast 155 178 7,000  Level Chicago Center
05:36PM 41.9082 -84.7381 117° Southeast  Level FlightAware Approximate
05:37PM 41.8919 -84.6969 119° Southeast  Level FlightAware Approximate
05:37PM 41.8892 -84.6569 119° Southeast 155 178 7,000  Level Chicago Center
05:39PM 41.8615 -84.5913 120° Southeast  Level FlightAware Approximate
05:40PM 41.8258 -84.4964 120° Southeast 151 174 7,000  Level Chicago Center
05:41PM 41.8050 -84.4469 119° Southeast 151 174 7,000 -60 Level Chicago Center
05:42PM 41.7831 -84.3964 120° Southeast 153 176 6,900  Descending Chicago Center
05:44PM 41.7586 -84.3397 120° Southeast  Level FlightAware Approximate
05:44PM 41.7442 -84.2964 120° Southeast 153 176 7,000  Level Chicago Center
05:45PM 41.7206 -84.2389 119° Southeast 150 173 6,900  Descending Chicago Center
05:46PM 41.7096 -84.2343 120° Southeast  Level FlightAware Approximate
05:48PM 41.6755 -84.1372 121° Southeast  Level FlightAware Approximate
05:55PM 41.5184 -83.7853 121° Southeast  Level FlightAware Approximate
05:56PM 41.4959 -83.7352 121° Southeast  Level FlightAware Approximate
05:57PM 41.4733 -83.6851 121° Southeast  Level FlightAware Approximate
05:58PM 41.4508 -83.6350 121° Southeast  Level FlightAware Approximate
05:59PM 41.4487 -83.5766 92° East  Level FlightAware Approximate
06:00PM 41.4473 -83.5182 92° East  Level FlightAware Approximate
06:01PM 41.4459 -83.4599 92° East  Level FlightAware Approximate
06:02PM 41.4445 -83.4015 92° East  Level FlightAware Approximate
06:03PM 41.4430 -83.3431 92° East  Level FlightAware Approximate
06:04PM 41.4415 -83.2848 92° East  Level FlightAware Approximate
06:05PM 41.4400 -83.2264 92° East  Level FlightAware Approximate
06:06PM 41.4384 -83.1680 92° East  Level FlightAware Approximate
06:07PM 41.4369 -83.1097 92° East  Level FlightAware Approximate
06:08PM 41.4352 -83.0513 92° East  Level FlightAware Approximate
06:09PM 41.4336 -82.9930 92° East  Level FlightAware Approximate
06:10PM 41.4334 -82.9346 90° East  Level FlightAware Approximate
06:10PM 41.4433 -82.9569 90° East 149 171 7,100  Level Cleveland Center
06:11PM 41.4334 -82.8762 90° East  Level FlightAware Approximate
06:11PM 41.4508 -82.9019 80° East 152 175 7,100  Level Cleveland Center
06:12PM 41.4334 -82.8178 90° East  Level FlightAware Approximate
06:12PM 41.4558 -82.8494 83° East 151 174 7,100  Level Cleveland Center
06:13PM 41.4334 -82.7594 90° East  Level FlightAware Approximate
06:13PM 41.4611 -82.7942 83° East 151 174 7,100  Level Cleveland Center
06:14PM 41.4334 -82.7010 90° East  Level FlightAware Approximate
06:14PM 41.4644 -82.7389 85° East 147 169 7,000  Level Cleveland Center
06:15PM 41.4333 -82.6426 90° East  Level FlightAware Approximate
06:15PM 41.4717 -82.6839 80° East 143 165 7,100  Level Cleveland Center
06:16PM 41.4334 -82.5842 90° East  Level FlightAware Approximate
06:17PM 41.4789 -82.6286 80° East 149 171 7,000  Level Cleveland Center
06:18PM 41.4800 -82.5731 88° East 150 173 7,100 -120 Climbing Cleveland Center
06:19PM 41.4892 -82.5153 78° East 156 180 6,800 -480 Descending Cleveland Center
06:21PM 41.4994 -82.3908 84° East 165 190 5,700 -540 Descending Cleveland Center
06:22PM 41.5089 -82.3300 78° East 167 192 5,200 -600 Descending Cleveland Center
06:23PM 41.5161 -82.2692 81° East 163 188 4,600 -600 Descending Cleveland Center
06:25PM 41.4667 -82.1801 90° East  Level FlightAware Approximate
06:26PM 41.5561 -82.0869 90° East 169 194 2,900  Level Cleveland Center
06:27PM 41.5694 -82.0264 74° East 167 192 2,200 -240 Descending Cleveland Center
06:28PM 41.5722 -81.9736 86° East 140 161 2,500 -180 Climbing Cleveland Center
06:30PM 41.5525 -81.8678 104° East 158 182 1,700 -300 Descending Cleveland Center
06:31PM 41.5364 -81.8231 116° Southeast 132 152 1,700 -60 Level Cleveland Center
06:32PM 41.5244 -81.7758 109° East 131 151 1,600 -180 Descending Cleveland Center
06:33PM 41.5144 -81.7339 108° East 120 138 1,400 -240 Descending Cleveland Center